sensor_id;sensor_type;location;lat;lon;timestamp;P1;durP1;ratioP1;P2;durP2;ratioP2
37847;SDS011;23688;33.130;-117.188;2023-08-31T00:00:48;12.45;;;5.97;;
37847;SDS011;23688;33.130;-117.188;2023-08-31T00:03:18;15.55;;;6.40;;
37847;SDS011;23688;33.130;-117.188;2023-08-31T00:05:44;15.38;;;6.95;;
37847;SDS011;23688;33.130;-117.188;2023-08-31T00:08:12;14.35;;;7.00;;
37847;SDS011;23688;33.130;-117.188;2023-08-31T00:10:39;11.30;;;5.78;;
37847;SDS011;23688;33.130;-117.188;2023-08-31T00:13:05;17.92;;;6.57;;
37847;SDS011;23688;33.130;-117.188;2023-08-31T00:15:34;17.25;;;7.20;;
37847;SDS011;23688;33.130;-117.188;2023-08-31T00:18:02;15.10;;;7.03;;
37847;SDS011;23688;33.130;-117.188;2023-08-31T00:20:31;12.82;;;5.85;;
37847;SDS011;23688;33.130;-117.188;2023-08-31T00:22:59;12.43;;;6.18;;
37847;SDS011;23688;33.130;-117.188;2023-08-31T00:25:25;15.65;;;6.05;;
37847;SDS011;23688;33.130;-117.188;2023-08-31T00:27:53;16.30;;;6.05;;
37847;SDS011;23688;33.130;-117.188;2023-08-31T00:30:20;14.10;;;6.30;;
37847;SDS011;23688;33.130;-117.188;2023-08-31T00:32:46;12.77;;;6.07;;
37847;SDS011;23688;33.130;-117.188;2023-08-31T00:35:16;14.40;;;6.63;;
37847;SDS011;23688;33.130;-117.188;2023-08-31T00:37:42;12.68;;;6.20;;
37847;SDS011;23688;33.130;-117.188;2023-08-31T00:40:09;16.15;;;6.60;;
37847;SDS011;23688;33.130;-117.188;2023-08-31T00:42:39;11.98;;;6.13;;
37847;SDS011;23688;33.130;-117.188;2023-08-31T00:45:08;12.20;;;6.05;;
37847;SDS011;23688;33.130;-117.188;2023-08-31T00:47:35;12.95;;;6.28;;
37847;SDS011;23688;33.130;-117.188;2023-08-31T00:50:02;12.35;;;6.28;;
37847;SDS011;23688;33.130;-117.188;2023-08-31T00:52:28;12.88;;;6.22;;
37847;SDS011;23688;33.130;-117.188;2023-08-31T00:54:54;18.23;;;6.18;;
37847;SDS011;23688;33.130;-117.188;2023-08-31T00:57:21;15.40;;;6.53;;
37847;SDS011;23688;33.130;-117.188;2023-08-31T00:59:48;12.52;;;6.68;;
37847;SDS011;23688;33.130;-117.188;2023-08-31T01:02:22;15.35;;;6.25;;
37847;SDS011;23688;33.130;-117.188;2023-08-31T01:05:08;13.45;;;6.50;;
37847;SDS011;23688;33.130;-117.188;2023-08-31T01:07:56;16.58;;;7.25;;
37847;SDS011;23688;33.130;-117.188;2023-08-31T01:14:00;12.98;;;6.22;;
37847;SDS011;23688;33.130;-117.188;2023-08-31T01:16:33;19.70;;;7.18;;
37847;SDS011;23688;33.130;-117.188;2023-08-31T01:19:04;17.13;;;6.87;;
37847;SDS011;23688;33.130;-117.188;2023-08-31T01:21:38;19.88;;;7.75;;
37847;SDS011;23688;33.130;-117.188;2023-08-31T01:24:07;17.95;;;7.22;;
37847;SDS011;23688;33.130;-117.188;2023-08-31T01:26:35;20.35;;;7.88;;
37847;SDS011;23688;33.130;-117.188;2023-08-31T01:29:02;19.30;;;7.28;;
37847;SDS011;23688;33.130;-117.188;2023-08-31T01:31:29;18.58;;;8.05;;
37847;SDS011;23688;33.130;-117.188;2023-08-31T01:33:55;16.35;;;7.45;;
37847;SDS011;23688;33.130;-117.188;2023-08-31T01:41:36;19.50;;;7.57;;
37847;SDS011;23688;33.130;-117.188;2023-08-31T01:44:06;21.70;;;8.15;;
37847;SDS011;23688;33.130;-117.188;2023-08-31T01:46:39;18.25;;;8.38;;
37847;SDS011;23688;33.130;-117.188;2023-08-31T01:49:09;26.27;;;8.07;;
37847;SDS011;23688;33.130;-117.188;2023-08-31T01:51:36;25.02;;;8.77;;
37847;SDS011;23688;33.130;-117.188;2023-08-31T01:54:02;26.45;;;8.65;;
37847;SDS011;23688;33.130;-117.188;2023-08-31T01:56:29;24.30;;;8.07;;
37847;SDS011;23688;33.130;-117.188;2023-08-31T01:58:55;23.48;;;8.70;;
37847;SDS011;23688;33.130;-117.188;2023-08-31T02:01:21;21.85;;;8.77;;
37847;SDS011;23688;33.130;-117.188;2023-08-31T02:03:47;28.15;;;8.40;;
37847;SDS011;23688;33.130;-117.188;2023-08-31T02:06:14;27.77;;;10.00;;
37847;SDS011;23688;33.130;-117.188;2023-08-31T02:08:41;27.42;;;10.10;;
37847;SDS011;23688;33.130;-117.188;2023-08-31T02:11:09;29.80;;;9.75;;
37847;SDS011;23688;33.130;-117.188;2023-08-31T02:13:35;24.35;;;9.25;;
37847;SDS011;23688;33.130;-117.188;2023-08-31T02:16:02;26.60;;;9.57;;
37847;SDS011;23688;33.130;-117.188;2023-08-31T02:18:29;32.97;;;10.85;;
37847;SDS011;23688;33.130;-117.188;2023-08-31T02:20:55;34.03;;;10.65;;
37847;SDS011;23688;33.130;-117.188;2023-08-31T02:23:22;33.63;;;10.40;;
37847;SDS011;23688;33.130;-117.188;2023-08-31T02:25:49;29.77;;;9.75;;
37847;SDS011;23688;33.130;-117.188;2023-08-31T02:28:15;34.20;;;9.73;;
37847;SDS011;23688;33.130;-117.188;2023-08-31T02:30:44;37.28;;;10.43;;
37847;SDS011;23688;33.130;-117.188;2023-08-31T02:33:12;34.70;;;10.15;;
37847;SDS011;23688;33.130;-117.188;2023-08-31T02:35:38;32.67;;;10.93;;
37847;SDS011;23688;33.130;-117.188;2023-08-31T02:38:04;39.38;;;11.63;;
37847;SDS011;23688;33.130;-117.188;2023-08-31T02:40:31;39.95;;;11.93;;
37847;SDS011;23688;33.130;-117.188;2023-08-31T02:42:57;34.63;;;11.23;;
37847;SDS011;23688;33.130;-117.188;2023-08-31T02:45:23;34.13;;;10.57;;
37847;SDS011;23688;33.130;-117.188;2023-08-31T02:47:50;40.30;;;11.07;;
37847;SDS011;23688;33.130;-117.188;2023-08-31T02:50:16;33.20;;;10.93;;
37847;SDS011;23688;33.130;-117.188;2023-08-31T02:52:42;39.95;;;10.77;;
37847;SDS011;23688;33.130;-117.188;2023-08-31T02:55:09;44.47;;;11.57;;
37847;SDS011;23688;33.130;-117.188;2023-08-31T02:57:35;35.25;;;10.88;;
37847;SDS011;23688;33.130;-117.188;2023-08-31T03:00:02;35.92;;;11.20;;
37847;SDS011;23688;33.130;-117.188;2023-08-31T03:02:29;39.72;;;10.93;;
37847;SDS011;23688;33.130;-117.188;2023-08-31T03:04:55;38.17;;;12.18;;
37847;SDS011;23688;33.130;-117.188;2023-08-31T03:07:21;32.47;;;10.60;;
37847;SDS011;23688;33.130;-117.188;2023-08-31T03:09:48;37.83;;;10.27;;
37847;SDS011;23688;33.130;-117.188;2023-08-31T03:12:15;33.47;;;9.88;;
37847;SDS011;23688;33.130;-117.188;2023-08-31T03:14:42;28.20;;;10.27;;
37847;SDS011;23688;33.130;-117.188;2023-08-31T03:17:08;35.70;;;10.25;;
37847;SDS011;23688;33.130;-117.188;2023-08-31T03:19:34;37.00;;;11.23;;
37847;SDS011;23688;33.130;-117.188;2023-08-31T03:22:01;40.35;;;11.15;;
37847;SDS011;23688;33.130;-117.188;2023-08-31T03:24:27;42.35;;;12.02;;
37847;SDS011;23688;33.130;-117.188;2023-08-31T03:26:53;34.85;;;10.75;;
37847;SDS011;23688;33.130;-117.188;2023-08-31T03:29:19;43.20;;;13.00;;
37847;SDS011;23688;33.130;-117.188;2023-08-31T03:31:46;30.38;;;10.20;;
37847;SDS011;23688;33.130;-117.188;2023-08-31T03:34:12;38.08;;;10.77;;
37847;SDS011;23688;33.130;-117.188;2023-08-31T03:36:38;31.98;;;11.18;;
37847;SDS011;23688;33.130;-117.188;2023-08-31T03:39:05;39.83;;;11.98;;
37847;SDS011;23688;33.130;-117.188;2023-08-31T03:41:31;41.38;;;11.25;;
37847;SDS011;23688;33.130;-117.188;2023-08-31T03:43:58;31.15;;;10.52;;
37847;SDS011;23688;33.130;-117.188;2023-08-31T03:46:24;38.08;;;12.13;;
37847;SDS011;23688;33.130;-117.188;2023-08-31T03:48:51;27.87;;;10.30;;
37847;SDS011;23688;33.130;-117.188;2023-08-31T03:51:18;31.13;;;11.05;;
37847;SDS011;23688;33.130;-117.188;2023-08-31T03:53:44;31.08;;;10.63;;
37847;SDS011;23688;33.130;-117.188;2023-08-31T03:56:10;41.45;;;12.50;;
37847;SDS011;23688;33.130;-117.188;2023-08-31T03:58:36;32.33;;;10.25;;
37847;SDS011;23688;33.130;-117.188;2023-08-31T04:01:03;33.33;;;10.90;;
37847;SDS011;23688;33.130;-117.188;2023-08-31T04:03:30;41.30;;;11.20;;
37847;SDS011;23688;33.130;-117.188;2023-08-31T04:05:56;26.05;;;10.43;;
37847;SDS011;23688;33.130;-117.188;2023-08-31T04:08:23;32.30;;;11.65;;
37847;SDS011;23688;33.130;-117.188;2023-08-31T04:10:49;35.45;;;10.80;;
37847;SDS011;23688;33.130;-117.188;2023-08-31T04:13:15;28.58;;;9.85;;
37847;SDS011;23688;33.130;-117.188;2023-08-31T04:15:42;26.77;;;9.70;;
37847;SDS011;23688;33.130;-117.188;2023-08-31T04:18:08;26.10;;;8.98;;
37847;SDS011;23688;33.130;-117.188;2023-08-31T04:23:04;26.10;;;9.52;;
37847;SDS011;23688;33.130;-117.188;2023-08-31T04:25:31;25.33;;;9.82;;
37847;SDS011;23688;33.130;-117.188;2023-08-31T04:27:57;22.30;;;9.48;;
37847;SDS011;23688;33.130;-117.188;2023-08-31T04:30:23;24.15;;;9.55;;
37847;SDS011;23688;33.130;-117.188;2023-08-31T04:32:50;32.22;;;10.27;;
37847;SDS011;23688;33.130;-117.188;2023-08-31T04:35:16;44.03;;;11.98;;
37847;SDS011;23688;33.130;-117.188;2023-08-31T04:37:42;41.42;;;12.48;;
37847;SDS011;23688;33.130;-117.188;2023-08-31T04:40:10;44.27;;;11.33;;
37847;SDS011;23688;33.130;-117.188;2023-08-31T04:42:37;37.50;;;12.20;;
37847;SDS011;23688;33.130;-117.188;2023-08-31T04:45:04;44.30;;;12.05;;
37847;SDS011;23688;33.130;-117.188;2023-08-31T04:47:31;44.38;;;11.98;;
37847;SDS011;23688;33.130;-117.188;2023-08-31T04:49:58;48.72;;;12.98;;
37847;SDS011;23688;33.130;-117.188;2023-08-31T04:52:24;42.40;;;12.25;;
37847;SDS011;23688;33.130;-117.188;2023-08-31T04:54:51;40.30;;;11.02;;
37847;SDS011;23688;33.130;-117.188;2023-08-31T04:57:17;45.08;;;12.20;;
37847;SDS011;23688;33.130;-117.188;2023-08-31T04:59:45;51.37;;;14.30;;
37847;SDS011;23688;33.130;-117.188;2023-08-31T05:02:11;35.20;;;12.43;;
37847;SDS011;23688;33.130;-117.188;2023-08-31T05:04:37;38.15;;;11.35;;
37847;SDS011;23688;33.130;-117.188;2023-08-31T05:07:04;50.67;;;12.93;;
37847;SDS011;23688;33.130;-117.188;2023-08-31T05:09:30;41.58;;;11.75;;
37847;SDS011;23688;33.130;-117.188;2023-08-31T05:12:00;46.08;;;12.77;;
37847;SDS011;23688;33.130;-117.188;2023-08-31T05:14:28;46.60;;;14.07;;
37847;SDS011;23688;33.130;-117.188;2023-08-31T05:16:55;53.25;;;13.38;;
37847;SDS011;23688;33.130;-117.188;2023-08-31T05:19:21;55.63;;;13.82;;
37847;SDS011;23688;33.130;-117.188;2023-08-31T05:21:47;48.00;;;13.88;;
37847;SDS011;23688;33.130;-117.188;2023-08-31T05:24:14;57.20;;;13.30;;
37847;SDS011;23688;33.130;-117.188;2023-08-31T05:26:40;53.75;;;15.45;;
37847;SDS011;23688;33.130;-117.188;2023-08-31T05:29:06;42.10;;;13.20;;
37847;SDS011;23688;33.130;-117.188;2023-08-31T05:31:32;51.30;;;14.30;;
37847;SDS011;23688;33.130;-117.188;2023-08-31T05:33:59;52.53;;;13.80;;
37847;SDS011;23688;33.130;-117.188;2023-08-31T05:36:25;54.00;;;14.70;;
37847;SDS011;23688;33.130;-117.188;2023-08-31T05:38:51;54.45;;;14.75;;
37847;SDS011;23688;33.130;-117.188;2023-08-31T05:41:18;52.42;;;14.43;;
37847;SDS011;23688;33.130;-117.188;2023-08-31T05:43:44;53.92;;;15.60;;
37847;SDS011;23688;33.130;-117.188;2023-08-31T05:46:11;63.78;;;14.63;;
37847;SDS011;23688;33.130;-117.188;2023-08-31T05:48:37;70.10;;;15.57;;
37847;SDS011;23688;33.130;-117.188;2023-08-31T05:51:04;64.00;;;15.40;;
37847;SDS011;23688;33.130;-117.188;2023-08-31T05:53:31;56.17;;;14.40;;
37847;SDS011;23688;33.130;-117.188;2023-08-31T05:55:59;53.47;;;14.85;;
37847;SDS011;23688;33.130;-117.188;2023-08-31T05:58:33;57.53;;;15.75;;
37847;SDS011;23688;33.130;-117.188;2023-08-31T06:01:03;63.53;;;13.68;;
37847;SDS011;23688;33.130;-117.188;2023-08-31T06:03:30;59.72;;;14.25;;
37847;SDS011;23688;33.130;-117.188;2023-08-31T06:05:57;51.53;;;14.10;;
37847;SDS011;23688;33.130;-117.188;2023-08-31T06:08:24;55.22;;;14.45;;
37847;SDS011;23688;33.130;-117.188;2023-08-31T06:10:51;59.38;;;15.10;;
37847;SDS011;23688;33.130;-117.188;2023-08-31T06:13:17;51.00;;;14.73;;
37847;SDS011;23688;33.130;-117.188;2023-08-31T06:15:44;61.63;;;16.20;;
37847;SDS011;23688;33.130;-117.188;2023-08-31T06:18:12;69.18;;;15.70;;
37847;SDS011;23688;33.130;-117.188;2023-08-31T06:20:40;65.40;;;17.45;;
37847;SDS011;23688;33.130;-117.188;2023-08-31T06:23:07;62.75;;;15.65;;
37847;SDS011;23688;33.130;-117.188;2023-08-31T06:25:33;59.25;;;15.65;;
37847;SDS011;23688;33.130;-117.188;2023-08-31T06:27:59;66.10;;;16.17;;
37847;SDS011;23688;33.130;-117.188;2023-08-31T06:30:25;63.65;;;14.27;;
37847;SDS011;23688;33.130;-117.188;2023-08-31T06:32:52;60.97;;;14.68;;
37847;SDS011;23688;33.130;-117.188;2023-08-31T06:35:18;60.08;;;15.45;;
37847;SDS011;23688;33.130;-117.188;2023-08-31T06:37:45;70.05;;;17.08;;
37847;SDS011;23688;33.130;-117.188;2023-08-31T06:40:12;65.97;;;16.52;;
37847;SDS011;23688;33.130;-117.188;2023-08-31T06:42:38;72.15;;;17.13;;
37847;SDS011;23688;33.130;-117.188;2023-08-31T06:45:06;58.13;;;14.60;;
37847;SDS011;23688;33.130;-117.188;2023-08-31T06:47:33;61.53;;;15.45;;
37847;SDS011;23688;33.130;-117.188;2023-08-31T06:50:00;56.15;;;15.27;;
37847;SDS011;23688;33.130;-117.188;2023-08-31T06:52:26;50.95;;;13.65;;
37847;SDS011;23688;33.130;-117.188;2023-08-31T06:54:53;57.50;;;14.77;;
37847;SDS011;23688;33.130;-117.188;2023-08-31T06:57:22;52.25;;;13.00;;
37847;SDS011;23688;33.130;-117.188;2023-08-31T06:59:52;47.30;;;14.15;;
37847;SDS011;23688;33.130;-117.188;2023-08-31T07:02:19;40.13;;;14.63;;
37847;SDS011;23688;33.130;-117.188;2023-08-31T07:04:47;45.25;;;14.80;;
37847;SDS011;23688;33.130;-117.188;2023-08-31T07:07:13;49.45;;;14.73;;
37847;SDS011;23688;33.130;-117.188;2023-08-31T07:09:43;56.25;;;14.63;;
37847;SDS011;23688;33.130;-117.188;2023-08-31T07:12:11;54.80;;;15.45;;
37847;SDS011;23688;33.130;-117.188;2023-08-31T07:14:37;48.38;;;13.90;;
37847;SDS011;23688;33.130;-117.188;2023-08-31T07:17:04;52.78;;;14.82;;
37847;SDS011;23688;33.130;-117.188;2023-08-31T07:19:30;43.67;;;16.15;;
37847;SDS011;23688;33.130;-117.188;2023-08-31T07:21:57;49.83;;;15.27;;
37847;SDS011;23688;33.130;-117.188;2023-08-31T07:24:25;47.77;;;16.87;;
37847;SDS011;23688;33.130;-117.188;2023-08-31T07:26:52;45.22;;;14.48;;
37847;SDS011;23688;33.130;-117.188;2023-08-31T07:29:18;52.85;;;15.73;;
37847;SDS011;23688;33.130;-117.188;2023-08-31T07:31:48;56.08;;;17.05;;
37847;SDS011;23688;33.130;-117.188;2023-08-31T07:34:14;54.22;;;16.05;;
37847;SDS011;23688;33.130;-117.188;2023-08-31T07:36:41;55.28;;;15.50;;
37847;SDS011;23688;33.130;-117.188;2023-08-31T07:39:07;56.72;;;16.40;;
37847;SDS011;23688;33.130;-117.188;2023-08-31T07:41:33;77.13;;;19.63;;
37847;SDS011;23688;33.130;-117.188;2023-08-31T07:44:01;52.55;;;15.65;;
37847;SDS011;23688;33.130;-117.188;2023-08-31T07:46:28;53.08;;;17.52;;
37847;SDS011;23688;33.130;-117.188;2023-08-31T07:48:54;50.50;;;16.35;;
37847;SDS011;23688;33.130;-117.188;2023-08-31T07:51:21;54.17;;;16.85;;
37847;SDS011;23688;33.130;-117.188;2023-08-31T07:53:51;64.10;;;16.38;;
37847;SDS011;23688;33.130;-117.188;2023-08-31T07:56:17;50.25;;;17.23;;
37847;SDS011;23688;33.130;-117.188;2023-08-31T07:58:44;60.15;;;18.00;;
37847;SDS011;23688;33.130;-117.188;2023-08-31T08:01:11;53.40;;;17.45;;
37847;SDS011;23688;33.130;-117.188;2023-08-31T08:03:37;52.15;;;15.75;;
37847;SDS011;23688;33.130;-117.188;2023-08-31T08:06:03;60.17;;;17.13;;
37847;SDS011;23688;33.130;-117.188;2023-08-31T08:08:30;59.08;;;18.30;;
37847;SDS011;23688;33.130;-117.188;2023-08-31T08:10:56;57.13;;;17.23;;
37847;SDS011;23688;33.130;-117.188;2023-08-31T08:13:22;49.42;;;16.27;;
37847;SDS011;23688;33.130;-117.188;2023-08-31T08:15:49;56.83;;;16.77;;
37847;SDS011;23688;33.130;-117.188;2023-08-31T08:18:15;53.50;;;16.77;;
37847;SDS011;23688;33.130;-117.188;2023-08-31T08:20:41;62.78;;;19.45;;
37847;SDS011;23688;33.130;-117.188;2023-08-31T08:23:07;55.47;;;17.98;;
37847;SDS011;23688;33.130;-117.188;2023-08-31T08:25:35;72.80;;;20.15;;
37847;SDS011;23688;33.130;-117.188;2023-08-31T08:28:01;76.05;;;20.83;;
37847;SDS011;23688;33.130;-117.188;2023-08-31T08:30:28;91.30;;;23.85;;
37847;SDS011;23688;33.130;-117.188;2023-08-31T08:32:55;77.13;;;20.95;;
37847;SDS011;23688;33.130;-117.188;2023-08-31T08:35:21;64.45;;;18.55;;
37847;SDS011;23688;33.130;-117.188;2023-08-31T08:37:51;73.28;;;21.33;;
37847;SDS011;23688;33.130;-117.188;2023-08-31T08:40:18;84.05;;;21.25;;
37847;SDS011;23688;33.130;-117.188;2023-08-31T08:42:46;86.32;;;21.38;;
37847;SDS011;23688;33.130;-117.188;2023-08-31T08:45:13;69.30;;;21.45;;
37847;SDS011;23688;33.130;-117.188;2023-08-31T08:47:40;80.93;;;22.63;;
37847;SDS011;23688;33.130;-117.188;2023-08-31T08:50:09;75.05;;;21.65;;
37847;SDS011;23688;33.130;-117.188;2023-08-31T08:52:37;66.07;;;19.73;;
37847;SDS011;23688;33.130;-117.188;2023-08-31T08:55:07;88.78;;;21.83;;
37847;SDS011;23688;33.130;-117.188;2023-08-31T08:57:35;76.13;;;21.38;;
37847;SDS011;23688;33.130;-117.188;2023-08-31T09:00:01;71.25;;;21.70;;
37847;SDS011;23688;33.130;-117.188;2023-08-31T09:04:56;73.10;;;20.65;;
37847;SDS011;23688;33.130;-117.188;2023-08-31T09:07:24;71.00;;;20.55;;
37847;SDS011;23688;33.130;-117.188;2023-08-31T09:09:52;64.38;;;21.17;;
37847;SDS011;23688;33.130;-117.188;2023-08-31T09:12:23;74.22;;;20.30;;
37847;SDS011;23688;33.130;-117.188;2023-08-31T09:14:59;68.72;;;20.35;;
37847;SDS011;23688;33.130;-117.188;2023-08-31T09:17:28;63.55;;;20.08;;
37847;SDS011;23688;33.130;-117.188;2023-08-31T09:20:04;64.05;;;21.23;;
37847;SDS011;23688;33.130;-117.188;2023-08-31T09:22:31;69.38;;;20.00;;
37847;SDS011;23688;33.130;-117.188;2023-08-31T09:24:58;69.32;;;21.15;;
37847;SDS011;23688;33.130;-117.188;2023-08-31T09:27:24;59.83;;;19.48;;
37847;SDS011;23688;33.130;-117.188;2023-08-31T09:29:54;65.15;;;20.10;;
37847;SDS011;23688;33.130;-117.188;2023-08-31T09:32:21;59.20;;;20.02;;
37847;SDS011;23688;33.130;-117.188;2023-08-31T09:34:48;60.30;;;19.77;;
37847;SDS011;23688;33.130;-117.188;2023-08-31T09:37:17;76.47;;;22.80;;
37847;SDS011;23688;33.130;-117.188;2023-08-31T09:39:43;75.68;;;21.40;;
37847;SDS011;23688;33.130;-117.188;2023-08-31T09:42:10;61.70;;;19.23;;
37847;SDS011;23688;33.130;-117.188;2023-08-31T09:44:39;69.53;;;21.75;;
37847;SDS011;23688;33.130;-117.188;2023-08-31T09:47:08;64.47;;;21.52;;
37847;SDS011;23688;33.130;-117.188;2023-08-31T09:49:35;79.68;;;23.20;;
37847;SDS011;23688;33.130;-117.188;2023-08-31T09:52:04;67.93;;;22.17;;
37847;SDS011;23688;33.130;-117.188;2023-08-31T09:54:33;71.50;;;23.10;;
37847;SDS011;23688;33.130;-117.188;2023-08-31T09:57:03;53.00;;;21.70;;
37847;SDS011;23688;33.130;-117.188;2023-08-31T09:59:30;65.00;;;24.33;;
37847;SDS011;23688;33.130;-117.188;2023-08-31T10:01:59;51.47;;;20.73;;
37847;SDS011;23688;33.130;-117.188;2023-08-31T10:04:26;57.43;;;21.23;;
37847;SDS011;23688;33.130;-117.188;2023-08-31T10:06:57;46.45;;;19.55;;
37847;SDS011;23688;33.130;-117.188;2023-08-31T10:09:24;59.55;;;21.00;;
37847;SDS011;23688;33.130;-117.188;2023-08-31T10:11:51;64.55;;;21.70;;
37847;SDS011;23688;33.130;-117.188;2023-08-31T10:14:18;52.15;;;21.20;;
37847;SDS011;23688;33.130;-117.188;2023-08-31T10:16:46;72.28;;;23.77;;
37847;SDS011;23688;33.130;-117.188;2023-08-31T10:19:14;70.10;;;24.20;;
37847;SDS011;23688;33.130;-117.188;2023-08-31T10:21:40;78.63;;;21.67;;
37847;SDS011;23688;33.130;-117.188;2023-08-31T10:24:09;68.80;;;21.55;;
37847;SDS011;23688;33.130;-117.188;2023-08-31T10:26:35;58.83;;;21.52;;
37847;SDS011;23688;33.130;-117.188;2023-08-31T10:29:02;55.28;;;21.92;;
37847;SDS011;23688;33.130;-117.188;2023-08-31T10:31:30;81.82;;;24.20;;
37847;SDS011;23688;33.130;-117.188;2023-08-31T10:39:06;67.45;;;23.17;;
37847;SDS011;23688;33.130;-117.188;2023-08-31T10:41:36;56.10;;;22.77;;
37847;SDS011;23688;33.130;-117.188;2023-08-31T10:44:17;62.08;;;21.45;;
37847;SDS011;23688;33.130;-117.188;2023-08-31T10:46:48;70.05;;;21.83;;
37847;SDS011;23688;33.130;-117.188;2023-08-31T10:49:15;69.28;;;22.70;;
37847;SDS011;23688;33.130;-117.188;2023-08-31T10:51:44;66.50;;;24.00;;
37847;SDS011;23688;33.130;-117.188;2023-08-31T10:54:22;80.20;;;24.42;;
37847;SDS011;23688;33.130;-117.188;2023-08-31T10:59:41;72.05;;;23.73;;
37847;SDS011;23688;33.130;-117.188;2023-08-31T11:07:40;69.97;;;22.63;;
37847;SDS011;23688;33.130;-117.188;2023-08-31T11:10:08;64.38;;;21.90;;
37847;SDS011;23688;33.130;-117.188;2023-08-31T11:12:39;46.25;;;20.08;;
37847;SDS011;23688;33.130;-117.188;2023-08-31T11:15:06;45.13;;;19.17;;
37847;SDS011;23688;33.130;-117.188;2023-08-31T11:17:33;48.08;;;20.60;;
37847;SDS011;23688;33.130;-117.188;2023-08-31T11:20:00;48.20;;;21.65;;
37847;SDS011;23688;33.130;-117.188;2023-08-31T11:22:30;48.13;;;20.25;;
37847;SDS011;23688;33.130;-117.188;2023-08-31T11:24:58;45.25;;;19.20;;
37847;SDS011;23688;33.130;-117.188;2023-08-31T11:27:25;52.85;;;20.88;;
37847;SDS011;23688;33.130;-117.188;2023-08-31T11:29:51;49.55;;;21.48;;
37847;SDS011;23688;33.130;-117.188;2023-08-31T11:32:18;48.53;;;20.38;;
37847;SDS011;23688;33.130;-117.188;2023-08-31T11:34:44;44.65;;;19.05;;
37847;SDS011;23688;33.130;-117.188;2023-08-31T11:37:12;43.00;;;17.95;;
37847;SDS011;23688;33.130;-117.188;2023-08-31T11:39:51;41.55;;;17.30;;
37847;SDS011;23688;33.130;-117.188;2023-08-31T11:42:19;44.13;;;18.27;;
37847;SDS011;23688;33.130;-117.188;2023-08-31T11:44:47;47.30;;;18.73;;
37847;SDS011;23688;33.130;-117.188;2023-08-31T11:49:42;47.20;;;17.35;;
37847;SDS011;23688;33.130;-117.188;2023-08-31T11:52:10;49.35;;;20.85;;
37847;SDS011;23688;33.130;-117.188;2023-08-31T11:54:37;47.67;;;19.92;;
37847;SDS011;23688;33.130;-117.188;2023-08-31T11:57:08;46.08;;;19.92;;
37847;SDS011;23688;33.130;-117.188;2023-08-31T11:59:36;51.83;;;19.85;;
37847;SDS011;23688;33.130;-117.188;2023-08-31T12:02:06;57.47;;;21.13;;
37847;SDS011;23688;33.130;-117.188;2023-08-31T12:04:41;41.60;;;20.73;;
37847;SDS011;23688;33.130;-117.188;2023-08-31T12:07:12;49.70;;;20.75;;
37847;SDS011;23688;33.130;-117.188;2023-08-31T12:09:42;49.67;;;20.60;;
37847;SDS011;23688;33.130;-117.188;2023-08-31T12:12:10;57.17;;;19.15;;
37847;SDS011;23688;33.130;-117.188;2023-08-31T12:14:39;47.78;;;19.95;;
37847;SDS011;23688;33.130;-117.188;2023-08-31T12:17:08;44.22;;;18.77;;
37847;SDS011;23688;33.130;-117.188;2023-08-31T12:19:38;36.78;;;17.75;;
37847;SDS011;23688;33.130;-117.188;2023-08-31T12:22:05;42.35;;;16.98;;
37847;SDS011;23688;33.130;-117.188;2023-08-31T12:24:38;32.33;;;15.10;;
37847;SDS011;23688;33.130;-117.188;2023-08-31T12:27:08;40.22;;;16.20;;
37847;SDS011;23688;33.130;-117.188;2023-08-31T12:29:35;34.72;;;14.73;;
37847;SDS011;23688;33.130;-117.188;2023-08-31T12:32:03;30.10;;;13.20;;
37847;SDS011;23688;33.130;-117.188;2023-08-31T12:34:30;32.72;;;13.95;;
37847;SDS011;23688;33.130;-117.188;2023-08-31T12:36:56;32.20;;;13.65;;
37847;SDS011;23688;33.130;-117.188;2023-08-31T12:39:25;28.15;;;13.48;;
37847;SDS011;23688;33.130;-117.188;2023-08-31T12:41:52;33.47;;;13.27;;
37847;SDS011;23688;33.130;-117.188;2023-08-31T12:44:18;29.15;;;12.93;;
37847;SDS011;23688;33.130;-117.188;2023-08-31T12:46:45;24.05;;;12.73;;
37847;SDS011;23688;33.130;-117.188;2023-08-31T12:49:11;27.45;;;12.25;;
37847;SDS011;23688;33.130;-117.188;2023-08-31T12:51:37;26.73;;;12.45;;
37847;SDS011;23688;33.130;-117.188;2023-08-31T12:54:03;21.77;;;12.48;;
37847;SDS011;23688;33.130;-117.188;2023-08-31T12:56:30;28.95;;;12.80;;
37847;SDS011;23688;33.130;-117.188;2023-08-31T12:58:56;27.40;;;13.43;;
37847;SDS011;23688;33.130;-117.188;2023-08-31T13:01:23;38.25;;;13.13;;
37847;SDS011;23688;33.130;-117.188;2023-08-31T13:03:50;29.45;;;13.52;;
37847;SDS011;23688;33.130;-117.188;2023-08-31T13:06:17;25.52;;;12.07;;
37847;SDS011;23688;33.130;-117.188;2023-08-31T13:08:44;37.45;;;13.85;;
37847;SDS011;23688;33.130;-117.188;2023-08-31T13:11:11;30.33;;;14.73;;
37847;SDS011;23688;33.130;-117.188;2023-08-31T13:13:40;31.20;;;15.13;;
37847;SDS011;23688;33.130;-117.188;2023-08-31T13:16:06;34.97;;;14.13;;
37847;SDS011;23688;33.130;-117.188;2023-08-31T13:18:33;30.10;;;12.88;;
37847;SDS011;23688;33.130;-117.188;2023-08-31T13:20:59;37.50;;;14.13;;
37847;SDS011;23688;33.130;-117.188;2023-08-31T13:23:28;44.80;;;18.35;;
37847;SDS011;23688;33.130;-117.188;2023-08-31T13:25:54;58.00;;;19.73;;
37847;SDS011;23688;33.130;-117.188;2023-08-31T13:28:21;55.40;;;17.50;;
37847;SDS011;23688;33.130;-117.188;2023-08-31T13:30:47;66.90;;;20.33;;
37847;SDS011;23688;33.130;-117.188;2023-08-31T13:33:14;69.47;;;22.02;;
37847;SDS011;23688;33.130;-117.188;2023-08-31T13:35:40;81.65;;;23.25;;
37847;SDS011;23688;33.130;-117.188;2023-08-31T13:38:06;67.45;;;22.52;;
37847;SDS011;23688;33.130;-117.188;2023-08-31T13:40:33;87.32;;;26.70;;
37847;SDS011;23688;33.130;-117.188;2023-08-31T13:43:01;80.50;;;25.42;;
37847;SDS011;23688;33.130;-117.188;2023-08-31T13:45:30;83.53;;;24.40;;
37847;SDS011;23688;33.130;-117.188;2023-08-31T13:48:00;76.88;;;24.90;;
37847;SDS011;23688;33.130;-117.188;2023-08-31T13:50:27;62.50;;;22.08;;
37847;SDS011;23688;33.130;-117.188;2023-08-31T13:52:53;77.97;;;26.13;;
37847;SDS011;23688;33.130;-117.188;2023-08-31T13:55:20;85.57;;;28.00;;
37847;SDS011;23688;33.130;-117.188;2023-08-31T13:57:48;76.43;;;25.70;;
37847;SDS011;23688;33.130;-117.188;2023-08-31T14:00:15;65.10;;;23.33;;
37847;SDS011;23688;33.130;-117.188;2023-08-31T14:02:42;78.25;;;24.70;;
37847;SDS011;23688;33.130;-117.188;2023-08-31T14:05:12;76.18;;;25.10;;
37847;SDS011;23688;33.130;-117.188;2023-08-31T14:07:39;85.10;;;28.87;;
37847;SDS011;23688;33.130;-117.188;2023-08-31T14:10:06;85.68;;;26.38;;
37847;SDS011;23688;33.130;-117.188;2023-08-31T14:12:33;89.05;;;27.45;;
37847;SDS011;23688;33.130;-117.188;2023-08-31T14:15:00;81.20;;;24.38;;
37847;SDS011;23688;33.130;-117.188;2023-08-31T14:17:29;83.20;;;25.40;;